createdAt,value
2019-04-30T06:02:43.862Z,1013.00
2019-04-30T06:03:43.823Z,1013.06
2019-04-30T06:04:43.799Z,1013.03
2019-04-30T06:05:43.779Z,1013.08
2019-04-30T06:06:43.758Z,1013.09
2019-04-30T06:07:43.754Z,1013.08
2019-04-30T06:08:43.715Z,1013.08
2019-04-30T06:09:43.696Z,1013.12
2019-04-30T06:10:43.675Z,1013.09
2019-04-30T06:11:43.653Z,1013.09
2019-04-30T06:12:43.633Z,1013.12
2019-04-30T06:13:43.625Z,1013.12
2019-04-30T06:14:48.953Z,1013.07
2019-04-30T06:15:43.575Z,1013.10
2019-04-30T06:16:43.552Z,1013.08
2019-04-30T06:17:43.545Z,1013.11
2019-04-30T06:18:43.512Z,1013.15
2019-04-30T06:19:43.493Z,1013.14
2019-04-30T06:20:43.473Z,1013.17
2019-04-30T06:21:43.455Z,1013.17
2019-04-30T06:22:43.473Z,1013.21
2019-04-30T06:23:43.421Z,1013.22
2019-04-30T06:24:43.398Z,1013.21
2019-04-30T06:25:56.102Z,1013.23
2019-04-30T06:26:43.359Z,1013.28
2019-04-30T06:27:43.339Z,1013.24
2019-04-30T06:46:30.592Z,1013.23
2019-04-30T06:47:33.279Z,1013.23
2019-04-30T06:48:30.561Z,1013.27
2019-04-30T06:49:30.511Z,1013.25
2019-04-30T06:50:30.491Z,1013.25
2019-04-30T06:51:30.791Z,1013.27
2019-04-30T06:52:30.449Z,1013.30
2019-04-30T06:53:30.444Z,1013.31
2019-04-30T06:54:30.410Z,1013.29
2019-04-30T06:55:30.970Z,1013.32
2019-04-30T06:56:30.371Z,1013.28
2019-04-30T06:57:30.353Z,1013.31
2019-04-30T06:58:30.349Z,1013.33
2019-04-30T06:59:30.318Z,1013.31
2019-04-30T07:00:35.086Z,1013.42
2019-04-30T07:01:30.278Z,1013.43
2019-04-30T07:02:30.913Z,1013.40
2019-04-30T07:03:30.256Z,1013.42
2019-04-30T07:04:30.224Z,1013.39
2019-04-30T07:05:30.207Z,1013.39
2019-04-30T07:06:32.799Z,1013.41
2019-04-30T07:07:37.041Z,1013.40
2019-04-30T07:08:37.217Z,1013.39
2019-04-30T07:35:29.240Z,1013.50
2019-04-30T07:36:43.319Z,1013.46
2019-04-30T07:37:29.249Z,1013.50
2019-04-30T07:38:29.532Z,1013.45
2019-04-30T07:39:29.322Z,1013.50
2019-04-30T07:40:29.264Z,1013.48
2019-04-30T07:41:30.879Z,1013.50
2019-04-30T07:42:29.470Z,1013.47
2019-04-30T07:43:28.944Z,1013.49
2019-04-30T07:44:33.307Z,1013.50
2019-04-30T07:45:31.676Z,1013.51
2019-04-30T07:55:01.436Z,1013.57
2019-04-30T07:56:02.244Z,1013.58
2019-04-30T07:57:01.369Z,1013.58
2019-04-30T07:58:01.370Z,1013.57
2019-04-30T07:59:02.880Z,1013.55
2019-04-30T08:00:01.312Z,1013.58
2019-04-30T08:01:01.292Z,1013.55
2019-04-30T08:02:10.173Z,1013.52
2019-04-30T08:03:01.258Z,1013.52
2019-04-30T08:04:01.255Z,1013.51
2019-04-30T08:05:01.224Z,1013.54
2019-04-30T08:06:01.260Z,1013.55
2019-04-30T08:07:01.188Z,1013.54
2019-04-30T08:08:16.255Z,1013.57
2019-04-30T08:09:01.687Z,1013.58
2019-04-30T08:10:01.138Z,1013.56
2019-04-30T08:11:01.119Z,1013.55
2019-04-30T08:19:10.983Z,1013.57
2019-04-30T08:20:10.952Z,1013.58
2019-04-30T08:21:10.932Z,1013.61
2019-04-30T08:22:10.912Z,1013.61
2019-04-30T08:23:20.188Z,1013.66
2019-04-30T08:24:10.876Z,1013.64
2019-04-30T08:25:10.868Z,1013.59
2019-04-30T08:26:10.839Z,1013.57
2019-04-30T08:27:10.822Z,1013.54
2019-04-30T08:28:10.821Z,1013.58
2019-04-30T08:29:10.786Z,1013.60
2019-04-30T08:40:55.969Z,1013.58
2019-04-30T08:41:51.208Z,1013.56
2019-04-30T08:42:51.187Z,1013.52
2019-04-30T08:43:51.183Z,1013.54
2019-04-30T08:44:51.148Z,1013.54
2019-04-30T08:45:51.133Z,1013.52
2019-04-30T08:46:51.114Z,1013.54
2019-04-30T08:58:56.695Z,1013.50
2019-04-30T08:59:58.575Z,1013.50
2019-04-30T09:00:58.620Z,1013.50
2019-04-30T09:01:56.620Z,1013.44
2019-04-30T09:02:56.607Z,1013.47
2019-04-30T09:03:56.596Z,1013.44
2019-04-30T09:12:59.839Z,1013.43
2019-04-30T09:13:58.993Z,1013.38
2019-04-30T09:14:59.158Z,1013.34
2019-04-30T09:15:59.440Z,1013.35
2019-04-30T09:16:59.562Z,1013.41
2019-04-30T09:18:05.820Z,1013.37
2019-04-30T09:18:59.522Z,1013.43
2019-04-30T09:19:59.009Z,1013.36
2019-04-30T09:21:06.080Z,1013.36
2019-04-30T09:21:59.088Z,1013.37
2019-04-30T09:22:59.547Z,1013.39
2019-04-30T09:23:59.428Z,1013.41
2019-04-30T09:24:59.239Z,1013.42
2019-04-30T09:25:58.778Z,1013.42
2019-04-30T09:26:59.133Z,1013.40
2019-04-30T09:32:28.973Z,1013.40
2019-04-30T09:33:27.016Z,1013.45
2019-04-30T09:34:28.904Z,1013.44
2019-04-30T09:35:29.573Z,1013.41
2019-04-30T09:36:29.080Z,1013.38
2019-04-30T09:37:26.948Z,1013.41
2019-04-30T09:38:28.900Z,1013.38
2019-04-30T09:44:30.498Z,1013.43
2019-04-30T09:45:28.667Z,1013.39
2019-04-30T09:46:29.965Z,1013.37
2019-04-30T09:47:29.557Z,1013.37
2019-04-30T09:48:30.356Z,1013.33
2019-04-30T09:49:29.447Z,1013.35
2019-04-30T09:50:29.230Z,1013.36
2019-04-30T09:51:30.599Z,1013.35
2019-04-30T09:52:30.520Z,1013.39
2019-04-30T09:53:29.667Z,1013.38
2019-04-30T09:54:29.314Z,1013.36
2019-04-30T09:55:29.082Z,1013.36
2019-04-30T09:56:29.422Z,1013.37
2019-04-30T09:57:28.999Z,1013.37
2019-04-30T09:58:29.998Z,1013.34
2019-04-30T09:59:29.158Z,1013.31
2019-04-30T10:00:29.497Z,1013.30
2019-04-30T10:05:10.619Z,1013.29
2019-04-30T10:06:09.817Z,1013.26
2019-04-30T10:07:09.800Z,1013.30
2019-04-30T10:08:09.782Z,1013.26
2019-04-30T10:09:09.795Z,1013.25
2019-04-30T10:10:11.344Z,1013.20
2019-04-30T10:11:09.841Z,1013.22
2019-04-30T10:12:09.826Z,1013.20
2019-04-30T10:13:09.708Z,1013.22
2019-04-30T10:19:19.121Z,1013.11
2019-04-30T10:20:18.159Z,1013.11
2019-04-30T10:21:19.082Z,1013.11
2019-04-30T10:22:18.085Z,1013.06
2019-04-30T10:23:19.389Z,1013.08
2019-04-30T10:24:19.620Z,1013.07
2019-04-30T10:25:18.041Z,1013.05
2019-04-30T10:26:18.032Z,1012.96
2019-04-30T10:27:19.166Z,1013.07
2019-04-30T10:33:32.254Z,1013.00
2019-04-30T10:34:32.216Z,1012.99
2019-04-30T10:35:32.198Z,1012.97
2019-04-30T10:36:32.187Z,1012.97
2019-04-30T10:37:32.182Z,1012.96
2019-04-30T10:38:32.153Z,1012.95
2019-04-30T10:43:05.679Z,1012.83
2019-04-30T10:44:05.648Z,1012.83
2019-04-30T10:45:05.634Z,1012.82
2019-04-30T10:46:05.617Z,1012.75
2019-04-30T10:47:05.598Z,1012.77
2019-04-30T10:48:05.600Z,1012.78
2019-04-30T10:49:05.582Z,1012.82
2019-04-30T10:50:05.552Z,1012.73
2019-04-30T10:51:05.537Z,1012.86
2019-04-30T10:52:05.523Z,1012.78
2019-04-30T10:53:05.521Z,1012.80
2019-04-30T10:56:53.038Z,1012.75
2019-04-30T10:57:53.031Z,1012.75
2019-04-30T10:58:53.000Z,1012.71
2019-04-30T10:59:52.987Z,1012.69
2019-04-30T11:00:52.991Z,1012.67
2019-04-30T11:01:52.952Z,1012.71
2019-04-30T11:02:52.953Z,1012.68
2019-04-30T11:03:52.921Z,1012.63
2019-04-30T11:04:52.905Z,1012.66
2019-04-30T11:05:52.894Z,1012.63
2019-04-30T11:06:52.876Z,1012.65
2019-04-30T11:07:52.873Z,1012.62
2019-04-30T11:08:52.845Z,1012.65
2019-04-30T11:09:52.830Z,1012.66
2019-04-30T11:10:52.817Z,1012.59
2019-04-30T11:11:52.800Z,1012.61
2019-04-30T11:12:52.802Z,1012.63
2019-04-30T11:13:52.770Z,1012.57
2019-04-30T11:14:52.756Z,1012.61
2019-04-30T11:15:52.743Z,1012.60
2019-04-30T11:16:52.920Z,1012.55
2019-04-30T11:17:52.920Z,1012.50
2019-04-30T11:18:52.774Z,1012.54
2019-04-30T11:19:52.829Z,1012.54
2019-04-30T11:20:52.726Z,1012.55
2019-04-30T11:21:52.774Z,1012.51
2019-04-30T11:22:54.776Z,1012.49
2019-04-30T11:23:52.737Z,1012.46
2019-04-30T11:24:58.970Z,1012.46
2019-04-30T11:25:52.956Z,1012.46
2019-04-30T11:26:53.053Z,1012.44
2019-04-30T11:27:53.004Z,1012.40
2019-04-30T11:28:52.768Z,1012.40
2019-04-30T11:29:52.761Z,1012.41
2019-04-30T11:30:52.716Z,1012.44
2019-04-30T11:31:52.661Z,1012.43
2019-04-30T11:32:52.702Z,1012.35
2019-04-30T11:33:52.501Z,1012.27
2019-04-30T11:34:52.477Z,1012.28
2019-04-30T11:36:02.091Z,1012.29
2019-04-30T11:36:52.447Z,1012.27
2019-04-30T11:37:52.437Z,1012.25
2019-04-30T11:38:52.437Z,1012.11
2019-04-30T11:39:52.409Z,1012.14
2019-04-30T11:40:52.404Z,1012.22
2019-04-30T11:41:52.407Z,1012.26
2019-04-30T11:42:52.369Z,1012.26
2019-04-30T11:43:52.370Z,1012.29
2019-04-30T11:44:52.356Z,1012.21
2019-04-30T11:45:52.328Z,1012.18
2019-04-30T11:46:52.326Z,1012.15
2019-04-30T11:47:53.613Z,1012.11
2019-04-30T11:48:52.304Z,1012.13
2019-04-30T11:49:52.291Z,1012.14
2019-04-30T11:50:52.282Z,1012.14
2019-04-30T11:51:52.252Z,1012.10
2019-04-30T11:52:52.238Z,1012.12
2019-04-30T11:53:52.239Z,1012.06
2019-04-30T11:54:54.460Z,1012.08
2019-04-30T11:55:52.214Z,1012.05
2019-04-30T11:56:52.187Z,1012.05
2019-04-30T11:57:52.174Z,1012.09
2019-04-30T11:58:52.190Z,1012.00
2019-04-30T11:59:52.148Z,1011.98
2019-04-30T12:00:52.138Z,1011.97
2019-04-30T12:01:52.125Z,1012.00
2019-04-30T12:02:52.989Z,1011.98
2019-04-30T12:03:52.098Z,1011.98
2019-04-30T12:04:52.098Z,1011.98
2019-04-30T12:05:52.073Z,1011.95
2019-04-30T12:06:52.062Z,1011.93
2019-04-30T12:07:52.059Z,1011.92
2019-04-30T12:08:52.047Z,1011.90
2019-04-30T12:09:52.039Z,1011.92
2019-04-30T12:10:52.011Z,1011.91
2019-04-30T12:11:51.998Z,1011.85
2019-04-30T12:12:51.987Z,1011.88
2019-04-30T12:13:51.978Z,1011.89
2019-04-30T12:14:51.976Z,1011.81
2019-04-30T12:15:51.948Z,1011.81
2019-04-30T12:16:51.937Z,1011.78
2019-04-30T12:17:51.925Z,1011.79
2019-04-30T12:18:51.911Z,1011.80
2019-04-30T12:19:51.919Z,1011.83
2019-04-30T12:20:51.890Z,1011.81
2019-04-30T12:21:51.877Z,1011.86
2019-04-30T12:22:51.866Z,1011.79
2019-04-30T12:23:51.851Z,1011.84
2019-04-30T12:25:02.192Z,1011.83
2019-04-30T12:25:51.827Z,1011.80
2019-04-30T12:26:51.823Z,1011.85
2019-04-30T12:27:51.804Z,1011.88
2019-04-30T12:28:51.791Z,1011.72
2019-04-30T12:29:51.794Z,1011.81
2019-04-30T12:30:51.768Z,1011.82
2019-04-30T12:31:51.757Z,1011.77
2019-04-30T12:32:51.742Z,1011.78
2019-04-30T12:33:51.731Z,1011.78
2019-04-30T12:34:51.738Z,1011.76
2019-04-30T12:35:51.709Z,1011.80
2019-04-30T12:36:51.696Z,1011.77
2019-04-30T12:37:52.499Z,1011.80
2019-04-30T12:38:51.673Z,1011.63
2019-04-30T12:39:51.673Z,1011.61
2019-04-30T12:40:51.651Z,1011.72
2019-04-30T12:41:51.637Z,1011.65
2019-04-30T12:42:51.627Z,1011.63
2019-04-30T12:43:51.616Z,1011.68
2019-04-30T12:44:51.621Z,1011.71
2019-04-30T12:46:02.174Z,1011.75
2019-04-30T12:46:51.580Z,1011.58
2019-04-30T12:47:51.568Z,1011.81
2019-04-30T12:48:51.557Z,1011.76
2019-04-30T12:49:51.548Z,1011.58
2019-04-30T12:50:51.551Z,1011.59
2019-04-30T12:51:51.529Z,1011.57
2019-04-30T12:52:51.516Z,1011.54
2019-04-30T12:53:51.504Z,1011.51
2019-04-30T12:54:51.494Z,1011.50
2019-04-30T12:55:51.493Z,1011.65
2019-04-30T12:56:51.465Z,1011.74
2019-04-30T12:57:58.733Z,1011.70
2019-04-30T12:58:51.442Z,1011.64
2019-04-30T12:59:51.431Z,1011.62
2019-04-30T13:00:51.435Z,1011.53
2019-04-30T13:01:51.410Z,1011.65
2019-04-30T13:02:51.397Z,1011.67
2019-04-30T13:03:58.706Z,1011.61
2019-04-30T13:04:51.373Z,1011.62
2019-04-30T13:05:52.057Z,1011.67
2019-04-30T13:06:51.883Z,1011.61
2019-04-30T13:07:51.846Z,1011.63
2019-04-30T13:08:52.580Z,1011.57
2019-04-30T13:09:51.723Z,1011.54
2019-04-30T13:10:52.000Z,1011.58
2019-04-30T13:11:51.981Z,1011.40
2019-04-30T13:12:51.859Z,1011.33
2019-04-30T13:13:51.973Z,1011.40
2019-04-30T13:14:54.567Z,1011.38
2019-04-30T13:15:51.260Z,1011.35
2019-04-30T13:16:51.267Z,1011.32
2019-04-30T13:17:51.241Z,1011.34
2019-04-30T13:18:51.232Z,1011.34
2019-04-30T13:19:51.221Z,1011.54
2019-04-30T13:20:51.271Z,1011.37
2019-04-30T13:21:51.214Z,1011.32
2019-04-30T13:22:51.190Z,1011.47
2019-04-30T13:23:51.180Z,1011.49
2019-04-30T13:24:51.189Z,1011.43
2019-04-30T13:25:51.789Z,1011.50
2019-04-30T13:26:51.161Z,1011.50
2019-04-30T13:27:51.180Z,1011.47
2019-04-30T13:28:51.127Z,1011.47
2019-04-30T13:29:51.117Z,1011.44
2019-04-30T13:30:51.108Z,1011.44
2019-04-30T13:31:51.109Z,1011.50
2019-04-30T13:32:51.087Z,1011.44
2019-04-30T13:33:51.779Z,1011.44
2019-04-30T13:34:51.066Z,1011.27
2019-04-30T13:35:51.057Z,1011.33
2019-04-30T13:36:51.061Z,1011.34
2019-04-30T13:37:51.039Z,1011.34
2019-04-30T13:38:52.280Z,1011.28
2019-04-30T13:39:53.112Z,1011.30
2019-04-30T13:40:51.012Z,1011.30
2019-04-30T13:41:51.192Z,1011.29
2019-04-30T13:42:50.994Z,1011.11
2019-04-30T13:43:50.996Z,1011.12
2019-04-30T13:44:50.976Z,1011.07
2019-04-30T13:45:51.928Z,1011.29
2019-04-30T13:46:50.975Z,1011.18
2019-04-30T13:47:50.949Z,1011.22
2019-04-30T13:48:50.941Z,1011.44
2019-04-30T13:49:50.936Z,1011.29
2019-04-30T13:50:50.921Z,1011.32
2019-04-30T13:51:50.933Z,1011.42
2019-04-30T13:52:50.912Z,1011.03
2019-04-30T13:53:50.896Z,1011.02
2019-04-30T13:54:50.887Z,1011.00
2019-04-30T13:55:50.879Z,1011.11
2019-04-30T13:56:50.874Z,1010.97
2019-04-30T13:57:50.877Z,1011.32
2019-04-30T13:58:50.853Z,1011.31
2019-04-30T13:59:51.128Z,1011.32
2019-04-30T14:00:50.835Z,1010.98
2019-04-30T14:01:50.834Z,1011.35
2019-04-30T14:02:50.833Z,1011.28
2019-04-30T14:03:50.813Z,1010.99
2019-04-30T14:04:50.804Z,1010.91
2019-04-30T14:05:51.634Z,1010.89
2019-04-30T14:06:50.787Z,1010.94
2019-04-30T14:07:50.793Z,1010.86
2019-04-30T14:08:50.771Z,1010.87
2019-04-30T14:09:52.419Z,1010.87
2019-04-30T14:10:50.753Z,1010.87
2019-04-30T14:11:50.741Z,1011.07
2019-04-30T14:12:50.747Z,1010.99
2019-04-30T14:13:50.727Z,1010.90
2019-04-30T14:14:50.714Z,1010.82
2019-04-30T14:15:50.703Z,1010.82
2019-04-30T14:16:50.695Z,1010.84
2019-04-30T14:17:50.702Z,1011.00
2019-04-30T14:18:50.676Z,1011.00
2019-04-30T14:19:50.669Z,1011.00
2019-04-30T14:20:50.659Z,1010.98
2019-04-30T14:21:50.650Z,1010.95
2019-04-30T14:22:50.677Z,1010.99
2019-04-30T14:23:50.632Z,1010.93
2019-04-30T14:24:50.625Z,1010.72
2019-04-30T14:25:56.703Z,1010.70
2019-04-30T14:26:50.610Z,1010.67
2019-04-30T14:27:54.542Z,1010.79
2019-04-30T14:28:50.607Z,1010.77
2019-04-30T14:29:50.586Z,1010.69
2019-04-30T14:30:50.575Z,1010.66
2019-04-30T14:31:50.567Z,1010.85
2019-04-30T14:32:50.839Z,1010.85
2019-04-30T14:33:50.566Z,1010.89
2019-04-30T14:34:50.785Z,1010.86
2019-04-30T14:35:50.536Z,1010.84
2019-04-30T14:36:50.526Z,1010.81
2019-04-30T14:37:50.535Z,1010.83
2019-04-30T14:38:50.510Z,1010.79
2019-04-30T14:39:50.940Z,1010.69
2019-04-30T14:40:51.253Z,1010.80
2019-04-30T14:41:52.046Z,1010.75
2019-04-30T14:42:50.799Z,1010.76
2019-04-30T14:43:51.253Z,1010.85
2019-04-30T14:44:51.179Z,1010.79
2019-04-30T14:45:50.880Z,1010.72
2019-04-30T14:46:51.112Z,1010.79
2019-04-30T14:47:51.280Z,1010.80
2019-04-30T14:48:51.509Z,1010.75
2019-04-30T14:49:59.753Z,1010.72
2019-04-30T14:50:50.423Z,1010.76
2019-04-30T14:51:51.383Z,1010.70
2019-04-30T14:52:50.408Z,1010.73
2019-04-30T14:53:50.417Z,1010.75
2019-04-30T14:54:50.531Z,1010.73
2019-04-30T14:55:50.390Z,1010.72
2019-04-30T14:56:50.384Z,1010.76
2019-04-30T14:57:51.284Z,1010.80
2019-04-30T14:58:50.384Z,1010.91
2019-04-30T14:59:50.367Z,1010.90
2019-04-30T15:00:50.360Z,1010.98
2019-04-30T15:01:51.731Z,1011.10
2019-04-30T15:02:50.346Z,1011.23
2019-04-30T15:03:50.353Z,1011.33
2019-04-30T15:04:50.339Z,1011.19
2019-04-30T15:05:51.674Z,1011.20
2019-04-30T15:06:50.335Z,1011.10
2019-04-30T15:07:50.319Z,1011.08
2019-04-30T15:08:50.331Z,1011.05
2019-04-30T15:09:50.312Z,1010.96
2019-04-30T15:10:50.301Z,1010.93
2019-04-30T15:11:50.297Z,1010.92
2019-04-30T15:12:50.297Z,1010.58
2019-04-30T15:13:50.308Z,1010.62
2019-04-30T15:14:50.285Z,1010.89
2019-04-30T15:15:50.280Z,1010.89
2019-04-30T15:16:50.272Z,1010.88
2019-04-30T15:17:50.268Z,1010.85
2019-04-30T15:18:50.263Z,1010.90
2019-04-30T15:19:54.265Z,1010.98
2019-04-30T15:20:50.249Z,1010.97
2019-04-30T15:21:50.244Z,1010.61
2019-04-30T15:22:50.240Z,1010.76
2019-04-30T15:23:58.771Z,1010.78
2019-04-30T15:24:50.240Z,1010.97
2019-04-30T15:25:50.223Z,1010.79
2019-04-30T15:26:57.717Z,1010.41
2019-04-30T15:27:50.211Z,1010.48
2019-04-30T15:28:50.207Z,1011.20
2019-04-30T15:29:57.012Z,1011.23
2019-04-30T15:30:50.196Z,1011.28
2019-04-30T15:31:50.192Z,1011.31
2019-04-30T15:32:50.186Z,1011.24
2019-04-30T15:34:02.054Z,1011.16
2019-04-30T15:34:50.206Z,1011.08
2019-04-30T15:35:50.326Z,1011.03
2019-04-30T15:36:50.165Z,1010.68
2019-04-30T15:37:50.153Z,1010.48
2019-04-30T15:38:50.406Z,1011.02
2019-04-30T15:39:52.328Z,1010.97
2019-04-30T15:40:50.150Z,1010.87
2019-04-30T15:41:50.131Z,1010.86
2019-04-30T15:42:50.125Z,1010.83
2019-04-30T15:43:50.115Z,1010.77
2019-04-30T15:44:50.127Z,1010.78
2019-04-30T15:45:50.104Z,1010.71
2019-04-30T15:46:50.098Z,1010.69
2019-04-30T15:47:50.092Z,1010.70
2019-04-30T15:48:50.087Z,1010.68
2019-04-30T15:49:50.095Z,1010.64
2019-04-30T15:50:50.077Z,1010.36
2019-04-30T15:51:50.074Z,1010.64
2019-04-30T15:52:50.061Z,1010.56
2019-04-30T15:53:50.056Z,1010.62
2019-04-30T15:54:50.064Z,1010.56
2019-04-30T15:55:50.053Z,1010.54
2019-04-30T15:56:50.050Z,1010.34
2019-04-30T15:57:50.033Z,1010.56
2019-04-30T15:58:50.026Z,1010.59
2019-04-30T15:59:50.036Z,1010.57
2019-04-30T16:00:50.016Z,1010.56
2019-04-30T16:01:50.007Z,1010.48
2019-04-30T16:02:56.855Z,1010.22
2019-04-30T16:03:49.994Z,1010.24
2019-04-30T16:04:49.990Z,1010.21
2019-04-30T16:05:50.051Z,1010.50
2019-04-30T16:06:49.984Z,1010.57
2019-04-30T16:07:49.966Z,1010.47
2019-04-30T16:08:49.961Z,1010.49
2019-04-30T16:09:49.955Z,1010.22
2019-04-30T16:10:49.967Z,1010.50
2019-04-30T16:11:49.943Z,1010.48
2019-04-30T16:12:49.937Z,1010.42
2019-04-30T16:13:49.927Z,1010.32
2019-04-30T16:14:49.923Z,1010.55
2019-04-30T16:15:49.928Z,1010.45
2019-04-30T16:16:49.908Z,1010.47
2019-04-30T16:17:49.920Z,1010.43
2019-04-30T16:18:49.892Z,1010.35
2019-04-30T16:19:49.886Z,1010.44
2019-04-30T16:20:49.967Z,1010.34
2019-04-30T16:21:49.872Z,1010.18
2019-04-30T16:22:49.866Z,1010.10
2019-04-30T16:23:49.861Z,1010.09
2019-04-30T16:24:49.853Z,1010.34
2019-04-30T16:25:49.862Z,1010.35
2019-04-30T16:26:52.646Z,1010.41
2019-04-30T16:27:49.833Z,1010.23
2019-04-30T16:28:49.826Z,1010.05
2019-04-30T16:29:50.010Z,1010.04
2019-04-30T16:30:49.815Z,1010.05
2019-04-30T16:31:49.818Z,1010.19
2019-04-30T16:32:50.740Z,1010.14
2019-04-30T16:33:49.792Z,1010.41
2019-04-30T16:34:50.002Z,1010.37
2019-04-30T16:35:51.085Z,1010.35
2019-04-30T16:36:49.781Z,1010.36
2019-04-30T16:37:49.762Z,1010.34
2019-04-30T16:38:49.768Z,1010.33
2019-04-30T16:39:49.741Z,1010.37
2019-04-30T16:40:49.737Z,1010.32
2019-04-30T16:41:49.882Z,1010.33
2019-04-30T16:42:49.716Z,1010.36
2019-04-30T16:43:49.713Z,1010.34
2019-04-30T16:44:49.703Z,1010.32
2019-04-30T16:45:49.694Z,1010.31
2019-04-30T16:46:50.035Z,1010.32
2019-04-30T16:47:49.680Z,1010.36
2019-04-30T16:48:49.675Z,1010.33
2019-04-30T16:49:49.696Z,1010.34
2019-04-30T16:50:51.185Z,1010.35
2019-04-30T16:51:50.133Z,1010.35
2019-04-30T16:52:49.868Z,1010.33
2019-04-30T16:53:49.639Z,1010.32
2019-04-30T16:54:49.875Z,1010.27
2019-04-30T16:55:50.641Z,1010.29
2019-04-30T16:57:02.525Z,1010.30
2019-04-30T16:57:50.223Z,1010.27
2019-04-30T16:58:49.607Z,1010.21
2019-04-30T16:59:50.432Z,1010.27
2019-04-30T17:00:49.595Z,1010.27
2019-04-30T17:01:57.153Z,1010.28
2019-04-30T17:02:58.364Z,1010.27
2019-04-30T17:03:50.495Z,1010.26
2019-04-30T17:04:49.631Z,1010.29
2019-04-30T17:05:49.969Z,1010.21
2019-04-30T17:06:49.605Z,1010.21
2019-04-30T17:07:50.626Z,1010.20
2019-04-30T17:08:49.553Z,1010.02
2019-04-30T17:09:50.970Z,1010.06
2019-04-30T17:10:50.438Z,1010.08
2019-04-30T17:11:49.515Z,1010.01
2019-04-30T17:12:51.450Z,1010.03
2019-04-30T17:13:49.500Z,1010.06
2019-04-30T17:14:49.490Z,1010.05
2019-04-30T17:15:49.485Z,1010.13
2019-04-30T17:16:49.479Z,1010.11
2019-04-30T17:17:49.840Z,1010.08
2019-04-30T17:18:50.151Z,1010.04
2019-04-30T17:19:49.451Z,1010.01
2019-04-30T17:20:49.444Z,1009.85
2019-04-30T17:21:49.438Z,1009.86
2019-04-30T17:22:49.718Z,1009.89
2019-04-30T17:23:50.999Z,1009.96
2019-04-30T17:24:49.517Z,1010.01
2019-04-30T17:25:49.403Z,1009.95
2019-04-30T17:26:49.817Z,1009.97
2019-04-30T17:27:49.401Z,1009.98
2019-04-30T17:28:49.886Z,1009.98
2019-04-30T17:29:49.363Z,1009.96
2019-04-30T17:30:49.357Z,1009.94
2019-04-30T17:31:49.343Z,1009.80
2019-04-30T17:32:49.937Z,1009.87
2019-04-30T17:33:49.340Z,1009.90
2019-04-30T17:34:49.328Z,1009.97
2019-04-30T17:35:49.877Z,1009.97
2019-04-30T17:36:49.673Z,1009.96
2019-04-30T17:37:49.301Z,1009.94
2019-04-30T17:38:49.277Z,1009.91
2019-04-30T17:39:52.342Z,1009.92
2019-04-30T17:40:49.826Z,1009.97
2019-04-30T17:41:49.249Z,1009.91
2019-04-30T17:42:49.256Z,1009.91
2019-04-30T17:43:49.645Z,1009.95
2019-04-30T17:44:56.807Z,1009.99
2019-04-30T17:45:49.725Z,1009.97
2019-04-30T17:46:50.202Z,1009.91
2019-04-30T17:47:49.184Z,1009.89
2019-04-30T17:48:49.583Z,1009.86
2019-04-30T17:49:50.905Z,1009.86
2019-04-30T17:50:49.751Z,1009.83
2019-04-30T17:51:49.213Z,1009.86
2019-04-30T17:52:49.146Z,1009.89
2019-04-30T17:53:49.118Z,1009.88
2019-04-30T17:54:49.210Z,1009.87
2019-04-30T17:55:49.186Z,1009.86
2019-04-30T17:56:49.085Z,1009.85
2019-04-30T17:57:49.090Z,1009.85
2019-04-30T17:58:49.060Z,1009.84
2019-04-30T17:59:50.905Z,1009.86
2019-04-30T18:00:49.043Z,1009.87
2019-04-30T18:01:49.622Z,1009.85
2019-04-30T18:02:49.011Z,1009.86
2019-04-30T18:03:49.013Z,1009.86
2019-04-30T18:04:48.985Z,1009.88
2019-04-30T18:05:49.252Z,1009.88
2019-04-30T18:06:50.657Z,1009.89
2019-04-30T18:07:49.750Z,1009.87
2019-04-30T18:08:48.952Z,1009.87
2019-04-30T18:09:48.936Z,1009.90
2019-04-30T18:10:48.915Z,1009.87
2019-04-30T18:11:49.575Z,1009.90
2019-04-30T18:12:48.890Z,1009.94
2019-04-30T18:13:50.708Z,1009.93
2019-04-30T18:14:49.490Z,1009.94
2019-04-30T18:15:48.843Z,1009.92
2019-04-30T18:16:48.830Z,1009.92
2019-04-30T18:17:48.817Z,1009.92
2019-04-30T18:18:49.085Z,1009.96
2019-04-30T18:19:49.724Z,1009.93
2019-04-30T18:20:49.182Z,1009.98
2019-04-30T18:21:48.763Z,1009.96
2019-04-30T18:22:48.941Z,1010.00
2019-04-30T18:23:50.157Z,1009.95
2019-04-30T18:24:49.309Z,1009.96
2019-04-30T18:25:48.704Z,1010.00
2019-04-30T18:26:48.692Z,1010.00
2019-04-30T18:27:49.444Z,1009.96
2019-04-30T18:28:48.659Z,1010.01
2019-04-30T18:29:48.662Z,1010.05
2019-04-30T18:30:49.116Z,1010.02
2019-04-30T18:31:48.617Z,1009.99
2019-04-30T18:32:48.659Z,1010.03
2019-04-30T18:33:49.290Z,1010.02
2019-04-30T18:34:49.112Z,1010.03
2019-04-30T18:35:48.718Z,1010.03
2019-04-30T18:36:51.057Z,1010.02
2019-04-30T18:37:48.644Z,1010.02
2019-04-30T18:38:50.161Z,1010.03
2019-04-30T18:39:48.515Z,1010.03
2019-04-30T18:40:49.530Z,1010.06
2019-04-30T18:41:48.472Z,1010.06
2019-04-30T18:42:49.456Z,1010.07
2019-04-30T18:43:48.773Z,1010.15
2019-04-30T18:44:48.439Z,1010.11
2019-04-30T18:45:49.443Z,1010.15
2019-04-30T18:46:49.070Z,1010.22
2019-04-30T18:47:48.379Z,1010.23
2019-04-30T18:48:49.406Z,1010.20
2019-04-30T18:49:49.605Z,1010.23
2019-04-30T18:50:48.330Z,1010.23
2019-04-30T18:51:49.232Z,1010.25
2019-04-30T18:52:48.741Z,1010.28
2019-04-30T18:53:49.384Z,1010.23
2019-04-30T18:54:49.545Z,1010.22
2019-04-30T18:55:50.476Z,1010.28
2019-04-30T18:56:48.992Z,1010.27
2019-04-30T18:57:56.389Z,1010.27
2019-04-30T18:58:48.702Z,1010.29
2019-04-30T18:59:48.189Z,1010.29
2019-04-30T19:00:49.441Z,1010.31
2019-04-30T19:01:48.159Z,1010.27
2019-04-30T19:02:48.650Z,1010.25
2019-04-30T19:03:49.240Z,1010.26
2019-04-30T19:04:49.590Z,1010.28
2019-04-30T19:05:49.195Z,1010.33
2019-04-30T19:06:48.078Z,1010.30
2019-04-30T19:07:48.849Z,1010.34
2019-04-30T19:08:48.045Z,1010.27
2019-04-30T19:09:49.049Z,1010.33
2019-04-30T19:10:48.071Z,1010.35
2019-04-30T19:11:49.387Z,1010.37
2019-04-30T19:12:48.920Z,1010.33
2019-04-30T19:13:50.988Z,1010.41
2019-04-30T19:14:49.197Z,1010.36
2019-04-30T19:16:14.863Z,1010.39
2019-04-30T19:16:49.556Z,1010.41
2019-04-30T19:17:49.472Z,1010.41
2019-04-30T19:18:47.879Z,1010.44
2019-04-30T19:19:47.864Z,1010.43
2019-04-30T19:20:49.557Z,1010.42
2019-04-30T19:21:48.653Z,1010.42
2019-04-30T19:22:47.815Z,1010.43
2019-04-30T19:23:48.705Z,1010.47
2019-04-30T19:24:56.080Z,1010.47
2019-04-30T19:25:48.602Z,1010.47
2019-04-30T19:26:48.684Z,1010.48
2019-04-30T19:27:47.732Z,1010.46
2019-04-30T19:28:49.284Z,1010.44
2019-04-30T19:29:49.067Z,1010.50
2019-04-30T19:30:55.920Z,1010.53
2019-04-30T19:31:49.450Z,1010.53
2019-04-30T19:32:49.135Z,1010.57
2019-04-30T19:33:48.942Z,1010.54
2019-04-30T19:34:48.961Z,1010.54
2019-04-30T19:35:50.422Z,1010.51
2019-04-30T19:36:49.235Z,1010.56
2019-04-30T19:37:48.685Z,1010.60
2019-04-30T19:38:48.548Z,1010.64
2019-04-30T19:39:48.400Z,1010.62
2019-04-30T19:40:49.316Z,1010.66
2019-04-30T19:41:48.997Z,1010.68
2019-04-30T19:42:50.622Z,1010.68
2019-04-30T19:43:49.421Z,1010.73
2019-04-30T19:44:58.911Z,1010.73
2019-04-30T19:45:49.042Z,1010.77
2019-04-30T19:46:48.683Z,1010.74
2019-04-30T19:47:48.977Z,1010.74
2019-04-30T19:48:50.411Z,1010.82
2019-04-30T19:49:48.890Z,1010.82
2019-04-30T19:50:48.906Z,1010.80
2019-04-30T19:51:49.543Z,1010.80
2019-04-30T19:52:47.302Z,1010.80
2019-04-30T19:53:49.001Z,1010.81
2019-04-30T19:54:48.745Z,1010.81
2019-04-30T19:55:49.122Z,1010.82
2019-04-30T19:56:47.248Z,1010.83
2019-04-30T19:57:48.427Z,1010.84
2019-04-30T19:58:59.128Z,1010.83
2019-04-30T19:59:49.073Z,1010.84
2019-04-30T20:00:47.166Z,1010.83
2019-04-30T20:01:48.834Z,1010.84
2019-04-30T20:02:48.654Z,1010.86
2019-04-30T20:03:47.112Z,1010.83
2019-04-30T20:04:47.105Z,1010.86
2019-04-30T20:05:47.078Z,1010.84
2019-04-30T20:06:48.726Z,1010.85